createdAt,value
2018-07-05T00:01:23.890Z,5.97
2018-07-05T00:04:09.814Z,6.40
2018-07-05T00:06:55.851Z,6.70
2018-07-05T00:09:41.945Z,6.13
2018-07-05T00:12:27.992Z,6.60
2018-07-05T00:15:14.195Z,7.17
2018-07-05T00:18:00.107Z,6.77
2018-07-05T00:20:46.943Z,6.80
2018-07-05T00:23:33.038Z,6.17
2018-07-05T00:26:19.069Z,6.17
2018-07-05T00:29:05.071Z,5.73
2018-07-05T00:31:51.078Z,6.22
2018-07-05T00:34:37.105Z,5.77
2018-07-05T00:37:23.015Z,6.57
2018-07-05T00:40:09.114Z,5.67
2018-07-05T00:42:55.238Z,6.37
2018-07-05T00:45:41.026Z,5.83
2018-07-05T00:48:27.101Z,6.20
2018-07-05T00:51:12.951Z,6.80
2018-07-05T00:53:58.971Z,7.23
2018-07-05T00:56:44.859Z,5.43
2018-07-05T00:59:30.839Z,5.40
2018-07-05T01:02:17.337Z,6.55
2018-07-05T01:05:03.385Z,5.40
2018-07-05T01:07:49.398Z,6.33
2018-07-05T01:10:35.421Z,5.60
2018-07-05T01:13:21.445Z,5.83
2018-07-05T01:16:07.474Z,6.30
2018-07-05T01:18:53.522Z,5.90
2018-07-05T01:21:39.548Z,7.63
2018-07-05T01:24:25.499Z,5.70
2018-07-05T01:27:11.419Z,5.83
2018-07-05T01:29:57.446Z,5.83
2018-07-05T01:32:43.423Z,6.17
2018-07-05T01:35:29.413Z,5.93
2018-07-05T01:38:15.406Z,6.23
2018-07-05T01:41:01.386Z,5.47
2018-07-05T01:43:47.765Z,5.65
2018-07-05T01:46:33.788Z,6.00
2018-07-05T01:49:19.862Z,5.80
2018-07-05T01:52:10.034Z,5.93
2018-07-05T01:54:55.911Z,6.60
2018-07-05T01:57:41.727Z,5.37
2018-07-05T02:00:27.742Z,6.40
2018-07-05T02:03:13.729Z,5.30
2018-07-05T02:05:59.683Z,5.50
2018-07-05T02:08:45.649Z,6.03
2018-07-05T02:11:31.620Z,6.50
2018-07-05T02:14:17.563Z,5.70
2018-07-05T02:17:03.516Z,6.27
2018-07-05T02:19:49.435Z,6.93
2018-07-05T02:22:35.303Z,6.60
2018-07-05T02:25:21.156Z,5.90
2018-07-05T02:28:07.214Z,5.60
2018-07-05T02:30:53.110Z,4.93
2018-07-05T02:33:39.091Z,5.17
2018-07-05T02:36:24.927Z,6.40
2018-07-05T02:39:16.220Z,6.17
2018-07-05T02:42:02.194Z,6.40
2018-07-05T02:44:48.103Z,5.87
2018-07-05T02:47:34.034Z,6.17
2018-07-05T02:50:19.998Z,7.00
2018-07-05T02:53:05.984Z,5.87
2018-07-05T02:55:45.913Z,5.57
2018-07-05T02:58:31.958Z,5.90
2018-07-05T03:01:17.729Z,6.40
2018-07-05T03:04:03.662Z,5.33
2018-07-05T03:06:49.464Z,5.67
2018-07-05T03:09:35.378Z,5.70
2018-07-05T03:12:21.270Z,5.57
2018-07-05T03:15:07.125Z,5.63
2018-07-05T03:17:53.116Z,5.40
2018-07-05T03:20:39.189Z,6.17
2018-07-05T03:23:25.023Z,6.20
2018-07-05T03:26:10.948Z,5.80
2018-07-05T03:28:56.870Z,5.50
2018-07-05T03:31:42.974Z,6.57
2018-07-05T03:34:28.968Z,5.90
2018-07-05T03:37:14.795Z,6.57
2018-07-05T03:40:00.683Z,6.23
2018-07-05T03:42:46.603Z,6.20
2018-07-05T03:45:32.577Z,6.00
2018-07-05T03:48:18.453Z,5.50
2018-07-05T03:51:04.382Z,5.60
2018-07-05T03:53:50.367Z,5.40
2018-07-05T03:56:36.301Z,5.23
2018-07-05T03:59:22.198Z,5.67
2018-07-05T04:02:02.105Z,4.90
2018-07-05T04:04:48.088Z,5.83
2018-07-05T04:07:34.162Z,5.97
2018-07-05T04:10:20.049Z,5.30
2018-07-05T04:13:05.845Z,6.40
2018-07-05T04:15:51.698Z,5.40
2018-07-05T04:18:37.641Z,6.00
2018-07-05T04:21:23.562Z,5.37
2018-07-05T04:24:09.497Z,4.80
2018-07-05T04:26:55.779Z,5.30
2018-07-05T04:29:41.663Z,5.60
2018-07-05T04:32:27.453Z,6.67
2018-07-05T04:35:13.361Z,4.57
2018-07-05T04:37:59.326Z,6.90
2018-07-05T04:40:45.297Z,5.40
2018-07-05T04:43:31.099Z,6.20
2018-07-05T04:46:17.218Z,5.80
2018-07-05T04:49:03.118Z,5.27
2018-07-05T04:51:48.906Z,5.33
2018-07-05T04:54:34.947Z,5.10
2018-07-05T04:57:20.979Z,5.93
2018-07-05T05:00:06.798Z,5.70
2018-07-05T05:02:52.679Z,5.77
2018-07-05T05:05:38.495Z,6.00
2018-07-05T05:08:24.438Z,5.17
2018-07-05T05:11:10.387Z,5.30
2018-07-05T05:13:56.274Z,5.13
2018-07-05T05:16:42.069Z,5.37
2018-07-05T05:19:27.926Z,5.50
2018-07-05T05:22:13.808Z,4.53
2018-07-05T05:24:59.605Z,5.40
2018-07-05T05:27:45.555Z,4.93
2018-07-05T05:30:31.465Z,4.97
2018-07-05T05:33:17.518Z,4.63
2018-07-05T05:36:03.455Z,5.13
2018-07-05T05:38:49.310Z,5.17
2018-07-05T05:41:35.161Z,4.90
2018-07-05T05:44:21.089Z,5.07
2018-07-05T05:47:07.089Z,4.73
2018-07-05T05:49:52.990Z,4.83
2018-07-05T05:52:38.895Z,5.23
2018-07-05T05:55:24.915Z,4.90
2018-07-05T05:58:10.936Z,4.77
2018-07-05T06:00:57.186Z,4.40
2018-07-05T06:03:43.270Z,5.40
2018-07-05T06:06:29.139Z,4.90
2018-07-05T06:09:15.089Z,4.90
2018-07-05T06:12:01.050Z,4.60
2018-07-05T06:14:46.952Z,4.17
2018-07-05T06:17:32.854Z,4.87
2018-07-05T06:20:18.783Z,4.73
2018-07-05T06:23:04.715Z,4.63
2018-07-05T06:25:50.730Z,3.90
2018-07-05T06:28:36.670Z,3.80
2018-07-05T06:31:22.613Z,3.23
2018-07-05T06:34:08.621Z,4.50
2018-07-05T06:36:54.465Z,3.90
2018-07-05T06:39:40.409Z,3.30
2018-07-05T06:42:26.169Z,3.70
2018-07-05T06:45:12.228Z,3.77
2018-07-05T06:47:58.205Z,4.47
2018-07-05T06:50:44.165Z,3.20
2018-07-05T06:53:30.199Z,3.90
2018-07-05T06:56:16.011Z,3.50
2018-07-05T06:59:01.798Z,3.13
2018-07-05T07:01:47.750Z,3.87
2018-07-05T07:04:33.778Z,3.20
2018-07-05T07:07:19.650Z,3.23
2018-07-05T07:10:05.608Z,3.43
2018-07-05T07:12:51.567Z,3.50
2018-07-05T07:15:37.438Z,4.10
2018-07-05T07:18:23.245Z,3.90
2018-07-05T07:21:09.137Z,3.70
2018-07-05T07:23:55.169Z,4.43
2018-07-05T07:26:41.146Z,4.37
2018-07-05T07:29:27.251Z,4.57
2018-07-05T07:32:13.154Z,4.07
2018-07-05T07:34:58.953Z,4.30
2018-07-05T07:37:44.924Z,4.00
2018-07-05T07:40:30.752Z,4.23
2018-07-05T07:42:58.286Z,3.63
2018-07-05T07:45:25.850Z,4.10
2018-07-05T07:47:53.333Z,3.80
2018-07-05T07:50:20.884Z,4.17
2018-07-05T07:52:48.405Z,4.27
2018-07-05T07:55:16.193Z,3.70
2018-07-05T07:57:43.755Z,4.30
2018-07-05T08:00:11.269Z,4.30
2018-07-05T08:02:38.814Z,4.03
2018-07-05T08:05:06.413Z,4.27
2018-07-05T08:07:33.954Z,4.07
2018-07-05T08:10:01.665Z,4.63
2018-07-05T08:12:29.190Z,4.43
2018-07-05T08:14:56.747Z,4.87
2018-07-05T08:17:24.250Z,4.77
2018-07-05T08:19:51.799Z,4.37
2018-07-05T08:22:20.439Z,4.63
2018-07-05T08:24:47.931Z,5.40
2018-07-05T08:27:15.454Z,4.87
2018-07-05T08:29:42.991Z,5.63
2018-07-05T08:32:10.510Z,5.20
2018-07-05T08:34:38.035Z,5.37
2018-07-05T08:37:05.559Z,5.50
2018-07-05T08:39:34.305Z,6.47
2018-07-05T08:42:01.810Z,5.40
2018-07-05T08:44:29.354Z,6.30
2018-07-05T08:46:56.964Z,5.40
2018-07-05T08:49:24.500Z,5.43
2018-07-05T08:51:52.409Z,5.70
2018-07-05T08:54:19.996Z,5.63
2018-07-05T08:56:47.739Z,5.23
2018-07-05T08:59:15.290Z,6.30
2018-07-05T09:01:42.818Z,5.60
2018-07-05T09:04:10.356Z,6.37
2018-07-05T09:06:37.919Z,5.90
2018-07-05T09:09:05.799Z,6.17
2018-07-05T09:11:33.353Z,4.97
2018-07-05T09:14:00.883Z,5.53
2018-07-05T09:16:28.504Z,5.93
2018-07-05T09:18:56.207Z,6.40
2018-07-05T09:21:23.738Z,5.60
2018-07-05T09:23:51.277Z,5.80
2018-07-05T09:26:19.053Z,7.97
2018-07-05T09:28:46.586Z,5.73
2018-07-05T09:31:15.615Z,5.97
2018-07-05T09:33:44.293Z,5.00
2018-07-05T09:36:11.845Z,5.30
2018-07-05T09:38:39.371Z,6.53
2018-07-05T09:41:07.011Z,5.60
2018-07-05T09:43:34.709Z,5.70
2018-07-05T09:46:02.239Z,5.53
2018-07-05T09:48:29.769Z,6.40
2018-07-05T09:50:58.006Z,6.30
2018-07-05T09:53:25.798Z,6.07
2018-07-05T09:55:53.330Z,5.80
2018-07-05T09:58:20.946Z,6.33
2018-07-05T10:00:50.694Z,5.33
2018-07-05T10:03:19.792Z,6.47
2018-07-05T10:05:47.443Z,5.50
2018-07-05T10:08:15.735Z,5.03
2018-07-05T10:10:43.411Z,5.17
2018-07-05T10:13:11.301Z,5.23
2018-07-05T10:15:38.719Z,6.57
2018-07-05T10:18:06.355Z,4.67
2018-07-05T10:20:34.154Z,5.40
2018-07-05T10:23:01.671Z,4.30
2018-07-05T10:25:29.215Z,7.40
2018-07-05T10:27:56.750Z,5.87
2018-07-05T10:30:42.682Z,4.90
2018-07-05T10:33:28.611Z,5.30
2018-07-05T10:35:57.218Z,4.57
2018-07-05T10:38:24.759Z,4.23
2018-07-05T10:41:10.910Z,4.83
2018-07-05T10:43:57.069Z,5.10
2018-07-05T10:46:43.070Z,5.10
2018-07-05T10:49:29.136Z,4.50
2018-07-05T10:52:15.054Z,5.33
2018-07-05T10:55:01.978Z,4.00
2018-07-05T10:57:47.826Z,3.80
2018-07-05T11:00:35.468Z,8.20
2018-07-05T11:03:21.558Z,3.90
2018-07-05T11:06:07.547Z,5.47
2018-07-05T11:08:53.630Z,4.40
2018-07-05T11:11:41.053Z,4.10
2018-07-05T11:14:27.221Z,4.37
2018-07-05T11:17:13.127Z,4.40
2018-07-05T11:19:59.058Z,4.33
2018-07-05T11:22:44.979Z,4.50
2018-07-05T11:25:30.899Z,4.67
2018-07-05T11:28:10.957Z,5.20
2018-07-05T11:30:56.998Z,4.27
2018-07-05T11:33:43.020Z,5.07
2018-07-05T11:36:28.953Z,5.07
2018-07-05T11:39:14.839Z,5.17
2018-07-05T11:42:00.778Z,6.27
2018-07-05T11:44:46.662Z,6.60
2018-07-05T11:47:32.610Z,6.83
2018-07-05T11:50:18.475Z,6.33
2018-07-05T11:53:04.651Z,6.33
2018-07-05T11:55:50.462Z,6.23
2018-07-05T11:58:36.351Z,6.47
2018-07-05T12:01:22.219Z,6.43
2018-07-05T12:04:02.265Z,6.57
2018-07-05T12:06:48.278Z,5.73
2018-07-05T12:09:34.094Z,6.43
2018-07-05T12:12:19.904Z,5.80
2018-07-05T12:15:05.846Z,5.53
2018-07-05T12:17:51.802Z,6.23
2018-07-05T12:20:38.011Z,6.30
2018-07-05T12:23:24.026Z,5.47
2018-07-05T12:26:09.887Z,6.00
2018-07-05T12:28:55.981Z,6.00
2018-07-05T12:31:41.768Z,6.50
2018-07-05T12:34:27.610Z,6.70
2018-07-05T12:37:13.430Z,8.60
2018-07-05T12:39:59.335Z,8.67
2018-07-05T12:42:39.218Z,8.43
2018-07-05T12:45:25.206Z,9.40
2018-07-05T12:48:11.111Z,8.13
2018-07-05T12:50:56.944Z,9.20
2018-07-05T12:53:43.094Z,8.50
2018-07-05T12:56:28.981Z,9.90
2018-07-05T12:59:14.844Z,10.33
2018-07-05T13:01:54.824Z,13.00
2018-07-05T13:04:40.853Z,10.13
2018-07-05T13:07:26.754Z,10.40
2018-07-05T13:10:12.670Z,10.87
2018-07-05T13:12:58.722Z,11.23
2018-07-05T13:15:44.582Z,12.90
2018-07-05T13:18:30.482Z,14.70
2018-07-05T13:21:16.407Z,15.87
2018-07-05T13:23:56.390Z,14.20
2018-07-05T13:26:42.433Z,17.83
2018-07-05T13:29:28.318Z,18.07
2018-07-05T13:32:14.259Z,17.40
2018-07-05T13:35:01.173Z,15.90
2018-07-05T13:37:47.218Z,13.00
2018-07-05T13:40:33.462Z,14.03
2018-07-05T13:43:19.549Z,9.97
2018-07-05T13:46:05.697Z,8.80
2018-07-05T13:48:52.130Z,9.70
2018-07-05T13:51:38.058Z,8.00
2018-07-05T13:54:24.311Z,6.93
2018-07-05T13:57:04.467Z,6.03
2018-07-05T13:59:50.700Z,5.27
2018-07-05T14:02:36.934Z,5.33
2018-07-05T14:05:23.250Z,5.67
2018-07-05T14:08:09.298Z,5.27
2018-07-05T14:10:55.392Z,4.83
2018-07-05T14:13:42.284Z,5.63
2018-07-05T14:16:28.474Z,5.30
2018-07-05T14:19:18.158Z,5.80
2018-07-05T14:22:05.138Z,5.83
2018-07-05T14:24:45.053Z,5.57
2018-07-05T14:27:31.394Z,5.37
2018-07-05T14:30:17.524Z,5.30
2018-07-05T14:33:03.378Z,5.73
2018-07-05T14:35:49.451Z,4.63
2018-07-05T14:38:37.441Z,5.00
2018-07-05T14:41:23.420Z,5.20
2018-07-05T14:44:09.434Z,5.07
2018-07-05T14:46:55.998Z,5.50
2018-07-05T14:49:41.899Z,6.23
2018-07-05T14:52:27.734Z,5.53
2018-07-05T14:55:13.644Z,4.83
2018-07-05T14:57:59.639Z,6.03
2018-07-05T15:00:45.573Z,4.67
2018-07-05T15:03:31.478Z,5.60
2018-07-05T15:06:17.369Z,4.10
2018-07-05T15:09:03.626Z,5.07
2018-07-05T15:11:49.532Z,4.20
2018-07-05T15:14:35.498Z,4.17
2018-07-05T15:17:21.449Z,4.43
2018-07-05T15:20:07.275Z,4.80
2018-07-05T15:22:53.241Z,4.57
2018-07-05T15:25:39.227Z,4.37
2018-07-05T15:28:25.181Z,4.93
2018-07-05T15:31:11.281Z,4.83
2018-07-05T15:33:57.121Z,5.30
2018-07-05T15:36:42.946Z,4.73
2018-07-05T15:39:28.885Z,4.97
2018-07-05T15:42:14.922Z,5.77
2018-07-05T15:45:00.897Z,5.40
2018-07-05T15:47:46.858Z,4.93
2018-07-05T15:50:32.946Z,5.77
2018-07-05T15:53:19.029Z,4.63
2018-07-05T15:56:04.955Z,5.03
2018-07-05T15:58:50.875Z,5.10
2018-07-05T16:01:36.731Z,4.37
2018-07-05T16:04:22.655Z,5.43
2018-07-05T16:07:08.441Z,4.67
2018-07-05T16:09:54.390Z,4.53
2018-07-05T16:12:40.429Z,4.37
2018-07-05T16:15:26.377Z,4.47
2018-07-05T16:18:12.541Z,4.93
2018-07-05T16:20:58.638Z,4.13
2018-07-05T16:23:45.145Z,4.57
2018-07-05T16:26:31.023Z,4.17
2018-07-05T16:29:17.057Z,4.17
2018-07-05T16:32:03.122Z,4.53
2018-07-05T16:34:49.266Z,4.40
2018-07-05T16:37:35.102Z,3.97
2018-07-05T16:40:21.017Z,4.10
2018-07-05T16:43:06.930Z,4.47
2018-07-05T16:45:53.251Z,3.60
2018-07-05T16:48:39.469Z,3.63
2018-07-05T16:51:25.262Z,3.30
2018-07-05T16:54:11.239Z,3.33
2018-07-05T16:56:57.311Z,2.93
2018-07-05T16:59:43.410Z,3.80
2018-07-05T17:02:29.357Z,3.40
2018-07-05T17:05:15.337Z,3.17
2018-07-05T17:08:01.343Z,3.40
2018-07-05T17:10:47.281Z,3.03
2018-07-05T17:13:33.146Z,3.10
2018-07-05T17:16:19.139Z,3.17
2018-07-05T17:19:05.223Z,3.10
2018-07-05T17:21:51.143Z,2.80
2018-07-05T17:24:37.689Z,3.00
2018-07-05T17:27:23.664Z,3.03
2018-07-05T17:30:09.561Z,3.03
2018-07-05T17:32:55.555Z,2.77
2018-07-05T17:35:41.439Z,4.50
2018-07-05T17:38:27.442Z,3.80
2018-07-05T17:41:13.370Z,3.40
2018-07-05T17:43:59.206Z,2.80
2018-07-05T17:46:45.090Z,3.63
2018-07-05T17:49:31.025Z,2.70
2018-07-05T17:52:16.987Z,2.83
2018-07-05T17:55:02.973Z,2.90
2018-07-05T17:57:42.870Z,2.80
2018-07-05T18:00:28.945Z,2.70
2018-07-05T18:03:14.890Z,2.60
2018-07-05T18:06:00.977Z,2.60
2018-07-05T18:08:48.128Z,2.47
2018-07-05T18:11:34.107Z,2.67
2018-07-05T18:14:20.045Z,2.77
2018-07-05T18:17:05.993Z,3.10
2018-07-05T18:19:52.006Z,3.10
2018-07-05T18:22:37.967Z,2.93
2018-07-05T18:25:17.846Z,3.37
2018-07-05T18:28:04.034Z,3.73
2018-07-05T18:30:49.903Z,3.17
2018-07-05T18:33:35.906Z,2.67
2018-07-05T18:36:21.846Z,3.40
2018-07-05T18:39:07.656Z,3.20
2018-07-05T18:41:53.615Z,3.90
2018-07-05T18:44:39.668Z,3.20
2018-07-05T18:47:25.739Z,3.60
2018-07-05T18:50:11.740Z,3.13
2018-07-05T18:52:57.737Z,3.37
2018-07-05T18:55:43.572Z,3.60
2018-07-05T18:58:29.501Z,3.20
2018-07-05T19:01:15.414Z,3.27
2018-07-05T19:04:01.599Z,3.10
2018-07-05T19:06:47.779Z,4.15
2018-07-05T19:09:33.836Z,3.83
2018-07-05T19:12:21.301Z,3.27
2018-07-05T19:15:07.752Z,3.67
2018-07-05T19:17:54.899Z,2.42
2018-07-05T19:20:41.186Z,3.70
2018-07-05T19:23:27.932Z,3.20
2018-07-05T19:26:14.223Z,3.27
2018-07-05T19:29:00.530Z,3.37
2018-07-05T19:31:46.771Z,2.87
2018-07-05T19:34:33.118Z,3.42
2018-07-05T19:37:19.454Z,3.00
2018-07-05T19:40:05.623Z,3.00
2018-07-05T19:42:51.919Z,3.00
2018-07-05T19:45:38.018Z,2.87
2018-07-05T19:48:24.294Z,2.70
2018-07-05T19:51:10.468Z,3.30
2018-07-05T19:53:56.722Z,3.37
2018-07-05T19:56:42.831Z,2.73
2018-07-05T19:59:22.849Z,3.10
2018-07-05T20:02:09.202Z,2.83
2018-07-05T20:04:55.294Z,2.92
2018-07-05T20:07:41.610Z,3.70
2018-07-05T20:10:28.434Z,4.10
2018-07-05T20:13:14.765Z,3.80
2018-07-05T20:16:00.850Z,4.72
2018-07-05T20:18:46.946Z,3.30
2018-07-05T20:21:33.293Z,3.87
2018-07-05T20:24:19.798Z,4.47
2018-07-05T20:27:05.870Z,4.35
2018-07-05T20:29:52.107Z,4.28
2018-07-05T20:32:38.409Z,3.10
2018-07-05T20:35:24.562Z,3.90
2018-07-05T20:38:10.798Z,5.00
2018-07-05T20:40:56.861Z,4.50
2018-07-05T20:43:42.957Z,4.93
2018-07-05T20:46:29.187Z,5.53
2018-07-05T20:49:15.522Z,4.65
2018-07-05T20:52:01.926Z,5.70
2018-07-05T20:54:47.908Z,6.17
2018-07-05T20:57:34.242Z,6.10
2018-07-05T21:00:20.321Z,4.97
2018-07-05T21:03:06.550Z,5.17
2018-07-05T21:05:52.687Z,5.28
2018-07-05T21:08:38.973Z,5.10
2018-07-05T21:11:25.149Z,7.17
2018-07-05T21:14:11.370Z,5.65
2018-07-05T21:16:52.670Z,6.23
2018-07-05T21:19:38.651Z,5.90
2018-07-05T21:22:24.830Z,6.80
2018-07-05T21:25:11.102Z,5.70
2018-07-05T21:27:57.170Z,5.97
2018-07-05T21:30:43.575Z,6.10
2018-07-05T21:33:29.982Z,6.07
2018-07-05T21:36:16.262Z,5.95
2018-07-05T21:39:02.571Z,5.83
2018-07-05T21:41:48.820Z,5.53
2018-07-05T21:44:29.151Z,6.50
2018-07-05T21:47:15.296Z,5.80
2018-07-05T21:50:01.583Z,5.63
2018-07-05T21:52:47.808Z,5.92
2018-07-05T21:55:33.919Z,5.20
2018-07-05T21:58:20.176Z,5.33
2018-07-05T22:01:06.484Z,5.95
2018-07-05T22:03:52.755Z,5.93
2018-07-05T22:06:39.154Z,6.40
2018-07-05T22:09:25.241Z,6.40
2018-07-05T22:12:11.419Z,6.47
2018-07-05T22:14:57.583Z,6.45
2018-07-05T22:17:48.698Z,6.50
2018-07-05T22:20:40.381Z,6.60
2018-07-05T22:23:31.901Z,6.40
2018-07-05T22:26:17.784Z,5.80
2018-07-05T22:29:09.234Z,5.67
2018-07-05T22:31:57.023Z,5.07
2018-07-05T22:34:43.019Z,5.90
2018-07-05T22:37:29.778Z,6.12
2018-07-05T22:40:15.994Z,5.30
2018-07-05T22:43:02.233Z,6.03
2018-07-05T22:45:48.374Z,6.33
2018-07-05T22:48:34.796Z,6.90
2018-07-05T22:51:21.354Z,7.03
2018-07-05T22:54:07.790Z,7.22
2018-07-05T22:56:54.011Z,7.10
2018-07-05T22:59:34.897Z,6.05
2018-07-05T23:02:21.080Z,7.17
2018-07-05T23:05:07.263Z,7.67
2018-07-05T23:07:53.534Z,7.90
2018-07-05T23:10:34.921Z,8.10
2018-07-05T23:13:21.046Z,7.30
2018-07-05T23:16:01.293Z,7.80
2018-07-05T23:18:47.703Z,7.20
2018-07-05T23:21:33.883Z,7.97
2018-07-05T23:24:20.342Z,8.35
2018-07-05T23:27:06.598Z,9.10
2018-07-05T23:29:52.889Z,8.67
2018-07-05T23:32:39.130Z,7.37
2018-07-05T23:35:25.343Z,7.60
2018-07-05T23:38:11.722Z,8.17
2018-07-05T23:40:57.738Z,7.60
2018-07-05T23:43:43.834Z,8.27
2018-07-05T23:46:30.310Z,7.40
2018-07-05T23:49:16.434Z,7.97
2018-07-05T23:52:02.226Z,7.03
2018-07-05T23:54:48.310Z,7.47
2018-07-05T23:57:34.332Z,7.42
